This is the latest recevied weather packets stored in our database for station/object VE3VGJ. If no packets are shown the sender has not sent any weather packets the latest 10 day(s).
| Time | Temp. | Humidity | Pressure | Rain* | Wind** | Luminosity | Snow |
|---|---|---|---|---|---|---|---|
| 1777754051 | 6.67° C | 63% | 1014 hPa | 0 mm | - | 102 W/m² | - |
| 1777753746 | 6.11° C | 63% | 1013.9 hPa | 0 mm | - | 93 W/m² | - |
| 1777753444 | 6.67° C | 63% | 1014 hPa | 0 mm | - | 81 W/m² | - |
| 1777753142 | 6.67° C | 62% | 1013.9 hPa | 0 mm | - | 68 W/m² | - |
| 1777752837 | 6.67° C | 62% | 1014.1 hPa | 0 mm | - | 64 W/m² | - |
| 1777752534 | 6.67° C | 60% | 1013.9 hPa | 0 mm | - | 80 W/m² | - |
| 1777752230 | 7.22° C | 59% | 1014 hPa | 0 mm | - | 128 W/m² | - |
| 1777751928 | 7.22° C | 59% | 1014 hPa | 0 mm | - | 206 W/m² | - |
| 1777751624 | 7.22° C | 59% | 1014 hPa | 0 mm | - | 275 W/m² | - |
| 1777751321 | 7.22° C | 59% | 1014 hPa | 0 mm | - | 278 W/m² | - |
| 1777751018 | 6.67° C | 62% | 1014 hPa | 0 mm | - | 253 W/m² | - |
| 1777750714 | 6.67° C | 62% | 1014.2 hPa | 0 mm | - | 246 W/m² | - |
| 1777750411 | 6.67° C | 63% | 1014.1 hPa | 0 mm | - | 241 W/m² | - |
| 1777750107 | 6.67° C | 63% | 1014.4 hPa | 0 mm | - | 234 W/m² | - |
| 1777749804 | 6.67° C | 63% | 1014.3 hPa | 0 mm | - | 234 W/m² | - |
| 1777749501 | 6.67° C | 63% | 1014.2 hPa | 0 mm | - | 225 W/m² | - |
| 1777749199 | 6.11° C | 65% | 1014.1 hPa | 0 mm | - | 181 W/m² | - |
| 1777748896 | 6.11° C | 67% | 1014.5 hPa | 0 mm | - | 141 W/m² | - |
| 1777748593 | 6.11° C | 69% | 1014.4 hPa | 0 mm | - | 113 W/m² | - |
| 1777748289 | 6.11° C | 69% | 1014.5 hPa | 0 mm | - | 113 W/m² | - |
| 1777747985 | 6.11° C | 69% | 1014.3 hPa | 0 mm | - | 116 W/m² | - |
| 1777747682 | 6.11° C | 68% | 1014.5 hPa | 0 mm | - | 134 W/m² | - |
| 1777747377 | 6.67° C | 67% | 1014.3 hPa | 0 mm | - | 171 W/m² | - |
| 1777747074 | 7.22° C | 63% | 1014.2 hPa | 0 mm | - | 207 W/m² | - |
| 1777746770 | 8.33° C | 60% | 1014.1 hPa | 0 mm | - | 317 W/m² | - |
* Rain latest hour (hover to see other rain measurements)
** Current wind speed in m/s (hover to see current wind gust speed)